createdAt,value
2023-02-14T00:01:21.715Z,37.90
2023-02-14T00:03:50.074Z,37.53
2023-02-14T00:06:17.757Z,33.40
2023-02-14T00:08:45.736Z,38.15
2023-02-14T00:11:14.961Z,36.78
2023-02-14T00:14:02.853Z,35.92
2023-02-14T00:16:29.483Z,36.13
2023-02-14T00:19:06.167Z,37.30
2023-02-14T00:21:36.433Z,36.65
2023-02-14T00:24:04.502Z,36.70
2023-02-14T00:26:33.420Z,35.92
2023-02-14T00:29:01.094Z,38.03
2023-02-14T00:31:28.743Z,40.17
2023-02-14T00:33:56.712Z,39.38
2023-02-14T00:36:24.394Z,36.85
2023-02-14T00:38:51.959Z,37.95
2023-02-14T00:41:20.107Z,36.27
2023-02-14T00:43:50.221Z,35.40
2023-02-14T00:46:18.938Z,38.17
2023-02-14T00:48:47.194Z,37.90
2023-02-14T00:51:15.326Z,35.47
2023-02-14T00:53:44.044Z,35.43
2023-02-14T00:56:12.398Z,35.28
2023-02-14T00:58:39.979Z,38.58
2023-02-14T01:01:09.341Z,35.70
2023-02-14T01:03:37.394Z,37.55
2023-02-14T01:06:05.464Z,37.80
2023-02-14T01:08:33.214Z,36.47
2023-02-14T01:11:08.357Z,38.85
2023-02-14T01:13:35.916Z,38.00
2023-02-14T01:16:07.702Z,35.50
2023-02-14T01:18:37.570Z,34.60
2023-02-14T01:21:13.133Z,36.45
2023-02-14T01:23:41.120Z,30.58
2023-02-14T01:26:09.618Z,35.85
2023-02-14T01:28:37.206Z,35.22
2023-02-14T01:31:12.870Z,35.93
2023-02-14T01:33:43.487Z,35.65
2023-02-14T01:36:16.819Z,35.88
2023-02-14T01:38:44.695Z,35.90
2023-02-14T01:41:12.710Z,34.58
2023-02-14T01:43:55.751Z,41.03
2023-02-14T01:46:25.995Z,36.65
2023-02-14T01:48:58.532Z,37.55
2023-02-14T01:51:26.263Z,36.75
2023-02-14T01:53:55.540Z,39.08
2023-02-14T01:56:30.610Z,39.47
2023-02-14T01:59:03.016Z,39.35
2023-02-14T02:01:32.010Z,38.03
2023-02-14T02:04:09.815Z,38.75
2023-02-14T02:06:40.702Z,35.33
2023-02-14T02:09:15.567Z,38.97
2023-02-14T02:11:43.728Z,38.40
2023-02-14T02:14:14.312Z,36.13
2023-02-14T02:17:02.690Z,40.38
2023-02-14T02:20:03.930Z,37.35
2023-02-14T02:23:25.446Z,38.57
2023-02-14T02:26:16.862Z,38.72
2023-02-14T02:29:12.111Z,36.65
2023-02-14T02:32:06.287Z,37.55
2023-02-14T02:35:09.169Z,37.08
2023-02-14T02:37:46.286Z,38.23
2023-02-14T02:40:28.894Z,38.75
2023-02-14T02:43:08.509Z,40.55
2023-02-14T02:45:59.753Z,39.80
2023-02-14T02:48:36.282Z,39.17
2023-02-14T02:51:28.663Z,41.27
2023-02-14T02:54:03.797Z,40.53
2023-02-14T02:56:49.687Z,40.67
2023-02-14T02:59:22.878Z,40.95
2023-02-14T03:02:00.493Z,42.85
2023-02-14T03:04:47.117Z,39.27
2023-02-14T03:07:33.673Z,40.13
2023-02-14T03:10:04.392Z,37.38
2023-02-14T03:13:14.952Z,35.15
2023-02-14T03:16:09.736Z,41.22
2023-02-14T03:19:02.630Z,34.43
2023-02-14T03:21:38.239Z,38.97
2023-02-14T03:24:14.325Z,40.22
2023-02-14T03:26:50.086Z,38.33
2023-02-14T03:29:26.421Z,37.10
2023-02-14T03:32:01.463Z,40.13
2023-02-14T03:34:36.509Z,36.90
2023-02-14T03:37:11.265Z,37.05
2023-02-14T03:39:44.907Z,39.78
2023-02-14T03:42:19.837Z,39.83
2023-02-14T03:44:50.304Z,37.37
2023-02-14T03:47:20.725Z,41.20
2023-02-14T03:49:51.969Z,38.53
2023-02-14T03:52:21.875Z,38.70
2023-02-14T03:54:55.630Z,41.55
2023-02-14T03:57:27.668Z,39.57
2023-02-14T03:59:56.318Z,37.10
2023-02-14T04:02:29.261Z,38.92
2023-02-14T04:04:59.527Z,40.15
2023-02-14T04:07:27.124Z,40.55
2023-02-14T04:09:56.001Z,35.80
2023-02-14T04:12:36.904Z,40.78
2023-02-14T04:15:05.608Z,37.33
2023-02-14T04:17:51.069Z,35.83
2023-02-14T04:20:18.754Z,37.75
2023-02-14T04:22:47.200Z,37.33
2023-02-14T04:25:16.253Z,40.05
2023-02-14T04:27:43.854Z,39.33
2023-02-14T04:30:12.716Z,39.08
2023-02-14T04:32:41.477Z,38.90
2023-02-14T04:35:09.175Z,40.47
2023-02-14T04:37:36.881Z,41.53
2023-02-14T04:40:04.753Z,37.85
2023-02-14T04:42:33.840Z,41.13
2023-02-14T04:45:04.002Z,39.00
2023-02-14T04:47:31.814Z,45.90
2023-02-14T04:49:59.643Z,41.50
2023-02-14T04:52:27.234Z,38.10
2023-02-14T04:54:54.730Z,40.53
2023-02-14T04:57:22.321Z,42.10
2023-02-14T04:59:51.158Z,38.90
2023-02-14T05:02:18.741Z,40.35
2023-02-14T05:04:48.177Z,42.47
2023-02-14T05:07:17.018Z,40.22
2023-02-14T05:09:44.599Z,42.72
2023-02-14T05:12:12.191Z,47.50
2023-02-14T05:14:39.736Z,43.92
2023-02-14T05:17:08.600Z,42.30
2023-02-14T05:19:36.166Z,44.47
2023-02-14T05:22:03.728Z,36.33
2023-02-14T05:24:31.252Z,46.27
2023-02-14T05:26:58.790Z,41.13
2023-02-14T05:29:26.367Z,41.38
2023-02-14T05:31:54.366Z,43.05
2023-02-14T05:34:23.349Z,37.90
2023-02-14T05:36:51.080Z,40.43
2023-02-14T05:39:18.732Z,41.22
2023-02-14T05:41:46.351Z,42.55
2023-02-14T05:44:13.914Z,41.83
2023-02-14T05:46:41.482Z,44.80
2023-02-14T05:49:09.018Z,44.93
2023-02-14T05:51:37.884Z,46.88
2023-02-14T05:54:05.476Z,42.08
2023-02-14T05:56:33.004Z,44.97
2023-02-14T05:59:00.576Z,41.92
2023-02-14T06:01:28.336Z,41.43
2023-02-14T06:03:55.911Z,52.63
2023-02-14T06:06:23.498Z,43.58
2023-02-14T06:08:52.403Z,43.83
2023-02-14T06:11:19.943Z,41.50
2023-02-14T06:13:47.463Z,42.40
2023-02-14T06:16:15.077Z,34.75
2023-02-14T06:18:42.615Z,42.65
2023-02-14T06:21:10.182Z,42.28
2023-02-14T06:23:37.701Z,41.58
2023-02-14T06:26:06.640Z,38.47
2023-02-14T06:28:34.240Z,42.03
2023-02-14T06:31:02.206Z,42.97
2023-02-14T06:33:29.933Z,41.65
2023-02-14T06:35:57.505Z,38.78
2023-02-14T06:38:25.006Z,41.47
2023-02-14T06:40:52.545Z,44.58
2023-02-14T06:43:21.399Z,42.97
2023-02-14T06:45:48.990Z,41.58
2023-02-14T06:48:16.577Z,38.65
2023-02-14T06:50:44.073Z,44.80
2023-02-14T06:53:11.674Z,39.45
2023-02-14T06:55:39.235Z,41.97
2023-02-14T06:58:06.786Z,40.20
2023-02-14T07:00:35.719Z,44.13
2023-02-14T07:03:03.477Z,41.53
2023-02-14T07:05:31.740Z,42.38
2023-02-14T07:07:59.389Z,45.25
2023-02-14T07:10:27.321Z,41.80
2023-02-14T07:12:54.880Z,41.63
2023-02-14T07:15:22.403Z,42.67
2023-02-14T07:17:51.239Z,38.80
2023-02-14T07:20:19.843Z,43.45
2023-02-14T07:22:47.363Z,38.53
2023-02-14T07:25:15.398Z,40.90
2023-02-14T07:27:43.021Z,42.10
2023-02-14T07:30:11.974Z,42.70
2023-02-14T07:32:40.469Z,45.17
2023-02-14T07:35:10.102Z,43.90
2023-02-14T07:37:37.689Z,42.53
2023-02-14T07:40:14.050Z,38.63
2023-02-14T07:42:42.312Z,41.17
2023-02-14T07:45:21.132Z,39.30
2023-02-14T07:47:50.128Z,39.65
2023-02-14T07:50:20.023Z,38.80
2023-02-14T07:52:47.984Z,43.30
2023-02-14T07:55:16.258Z,38.90
2023-02-14T07:57:43.768Z,42.65
2023-02-14T08:00:12.029Z,41.10
2023-02-14T08:02:39.628Z,41.10
2023-02-14T08:05:07.752Z,40.10
2023-02-14T08:07:36.838Z,42.03
2023-02-14T08:10:04.793Z,42.42
2023-02-14T08:12:49.905Z,42.20
2023-02-14T08:15:35.150Z,41.35
2023-02-14T08:18:02.705Z,41.17
2023-02-14T08:20:30.227Z,42.08
2023-02-14T08:22:59.072Z,43.05
2023-02-14T08:25:26.644Z,39.67
2023-02-14T08:27:55.168Z,39.25
2023-02-14T08:30:23.583Z,38.60
2023-02-14T08:32:51.186Z,43.15
2023-02-14T08:35:18.776Z,39.15
2023-02-14T08:37:46.363Z,40.88
2023-02-14T08:40:15.459Z,43.88
2023-02-14T08:42:43.008Z,40.97
2023-02-14T08:45:11.022Z,41.42
2023-02-14T08:47:40.194Z,34.85
2023-02-14T08:50:13.427Z,36.83
2023-02-14T08:52:43.642Z,36.58
2023-02-14T08:55:12.521Z,34.10
2023-02-14T08:57:41.502Z,36.42
2023-02-14T09:00:10.768Z,36.17
2023-02-14T09:02:38.394Z,35.38
2023-02-14T09:05:08.054Z,34.03
2023-02-14T09:07:36.418Z,36.83
2023-02-14T09:10:04.201Z,34.70
2023-02-14T09:12:31.834Z,32.97
2023-02-14T09:15:00.768Z,31.83
2023-02-14T09:17:28.378Z,34.65
2023-02-14T09:19:55.989Z,32.00
2023-02-14T09:22:23.662Z,34.50
2023-02-14T09:24:51.209Z,32.95
2023-02-14T09:27:18.855Z,31.70
2023-02-14T09:29:46.462Z,28.30
2023-02-14T09:32:16.807Z,28.53
2023-02-14T09:35:02.004Z,29.63
2023-02-14T09:37:47.336Z,29.15
2023-02-14T09:40:17.972Z,31.13
2023-02-14T09:42:59.538Z,29.88
2023-02-14T09:45:30.833Z,26.33
2023-02-14T09:48:04.078Z,29.15
2023-02-14T09:50:37.770Z,28.15
2023-02-14T09:53:17.645Z,28.13
2023-02-14T09:55:51.248Z,29.08
2023-02-14T09:58:24.081Z,29.90
2023-02-14T10:00:57.997Z,28.67
2023-02-14T10:03:58.062Z,27.30
2023-02-14T10:06:42.628Z,28.00
2023-02-14T10:09:21.862Z,29.13
2023-02-14T10:11:49.804Z,27.53
2023-02-14T10:14:21.660Z,31.48
2023-02-14T10:16:53.480Z,26.75
2023-02-14T10:19:26.736Z,26.90
2023-02-14T10:22:00.468Z,29.55
2023-02-14T10:24:32.761Z,27.67
2023-02-14T10:27:11.978Z,25.20
2023-02-14T10:29:40.425Z,26.55
2023-02-14T10:32:15.042Z,28.48
2023-02-14T10:34:48.764Z,30.88
2023-02-14T10:37:31.063Z,31.57
2023-02-14T10:40:10.446Z,27.33
2023-02-14T10:42:46.483Z,28.20
2023-02-14T10:45:21.609Z,26.92
2023-02-14T10:47:59.653Z,24.80
2023-02-14T10:50:35.756Z,27.03
2023-02-14T10:53:15.031Z,26.48
2023-02-14T10:55:48.336Z,26.08
2023-02-14T10:58:18.202Z,27.90
2023-02-14T11:00:59.768Z,27.73
2023-02-14T11:03:29.558Z,28.30
2023-02-14T11:05:58.510Z,28.60
2023-02-14T11:08:29.700Z,27.42
2023-02-14T11:11:04.020Z,28.33
2023-02-14T11:13:35.235Z,25.80
2023-02-14T11:16:05.127Z,27.13
2023-02-14T11:18:35.702Z,27.23
2023-02-14T11:21:07.899Z,31.20
2023-02-14T11:23:38.943Z,27.90
2023-02-14T11:26:11.084Z,26.45
2023-02-14T11:28:46.242Z,26.70
2023-02-14T11:31:14.051Z,25.58
2023-02-14T11:33:45.662Z,27.70
2023-02-14T11:36:17.381Z,27.85
2023-02-14T11:38:46.634Z,24.23
2023-02-14T11:41:16.750Z,25.13
2023-02-14T11:43:49.113Z,25.00
2023-02-14T11:46:27.516Z,29.58
2023-02-14T11:49:00.363Z,23.85
2023-02-14T11:51:32.564Z,22.52
2023-02-14T11:54:04.818Z,25.23
2023-02-14T11:56:49.474Z,23.88
2023-02-14T11:59:27.897Z,25.20
2023-02-14T12:01:57.767Z,25.75
2023-02-14T12:04:38.216Z,24.90
2023-02-14T12:07:19.068Z,26.07
2023-02-14T12:09:47.551Z,23.58
2023-02-14T12:12:19.319Z,26.27
2023-02-14T12:14:46.984Z,25.10
2023-02-14T12:17:26.150Z,23.67
2023-02-14T12:20:01.567Z,24.73
2023-02-14T12:22:34.489Z,24.63
2023-02-14T12:25:10.970Z,22.35
2023-02-14T12:27:48.146Z,20.92
2023-02-14T12:30:18.374Z,23.58
2023-02-14T12:32:50.218Z,27.83
2023-02-14T12:35:20.792Z,24.65
2023-02-14T12:38:05.185Z,26.38
2023-02-14T12:40:42.897Z,25.55
2023-02-14T12:43:47.942Z,22.85
2023-02-14T12:46:29.302Z,23.00
2023-02-14T12:49:16.435Z,22.80
2023-02-14T12:51:52.515Z,23.08
2023-02-14T12:54:37.276Z,26.17
2023-02-14T12:57:13.904Z,23.25
2023-02-14T12:59:50.928Z,24.60
2023-02-14T13:02:39.899Z,23.92
2023-02-14T13:05:20.993Z,23.13
2023-02-14T13:08:02.641Z,25.83
2023-02-14T13:10:44.502Z,26.95
2023-02-14T13:13:21.807Z,21.87
2023-02-14T13:15:59.490Z,23.13
2023-02-14T13:18:40.473Z,23.80
2023-02-14T13:21:14.646Z,22.83
2023-02-14T13:23:44.686Z,22.95
2023-02-14T13:26:17.324Z,23.60
2023-02-14T13:28:51.696Z,22.50
2023-02-14T13:31:20.700Z,23.27
2023-02-14T13:33:52.455Z,22.67
2023-02-14T13:36:20.593Z,21.75
2023-02-14T13:38:51.193Z,24.20
2023-02-14T13:41:21.903Z,22.77
2023-02-14T13:43:51.956Z,23.77
2023-02-14T13:46:21.889Z,28.50
2023-02-14T13:49:01.599Z,25.95
2023-02-14T13:51:46.074Z,22.77
2023-02-14T13:54:31.084Z,22.95
2023-02-14T13:57:01.605Z,22.73
2023-02-14T13:59:32.085Z,25.13
2023-02-14T14:02:35.161Z,24.27
2023-02-14T14:05:47.582Z,24.83
2023-02-14T14:08:45.878Z,25.02
2023-02-14T14:12:00.681Z,28.30
2023-02-14T14:14:36.168Z,23.90
2023-02-14T14:17:19.429Z,25.58
2023-02-14T14:19:47.644Z,25.30
2023-02-14T14:22:17.582Z,25.45
2023-02-14T14:25:04.884Z,23.45
2023-02-14T14:27:35.385Z,24.70
2023-02-14T14:30:06.919Z,22.38
2023-02-14T14:32:36.935Z,25.93
2023-02-14T14:35:08.176Z,24.02
2023-02-14T14:37:37.592Z,24.80
2023-02-14T14:40:08.093Z,24.52
2023-02-14T14:42:38.057Z,24.02
2023-02-14T14:45:19.841Z,25.23
2023-02-14T14:47:48.732Z,25.50
2023-02-14T14:50:20.559Z,24.23
2023-02-14T14:52:50.125Z,24.83
2023-02-14T14:55:22.608Z,24.83
2023-02-14T14:57:52.199Z,24.23
2023-02-14T15:00:28.478Z,24.73
2023-02-14T15:03:01.342Z,25.17
2023-02-14T15:05:32.556Z,24.35
2023-02-14T15:08:17.533Z,24.13
2023-02-14T15:10:50.789Z,24.97
2023-02-14T15:13:36.191Z,23.25
2023-02-14T15:16:05.458Z,26.42
2023-02-14T15:18:33.232Z,23.27
2023-02-14T15:21:01.487Z,26.00
2023-02-14T15:23:29.375Z,25.97
2023-02-14T15:25:56.942Z,25.25
2023-02-14T15:28:28.712Z,27.45
2023-02-14T15:30:59.131Z,24.38
2023-02-14T15:33:29.746Z,30.38
2023-02-14T15:35:58.528Z,24.33
2023-02-14T15:38:28.299Z,26.50
2023-02-14T15:40:56.613Z,26.90
2023-02-14T15:43:30.701Z,24.90
2023-02-14T15:46:02.857Z,25.15
2023-02-14T15:48:34.804Z,23.73
2023-02-14T15:51:06.204Z,23.52
2023-02-14T15:53:40.057Z,24.40
2023-02-14T15:56:11.615Z,25.77
2023-02-14T15:58:41.121Z,27.45
2023-02-14T16:01:09.209Z,25.37
2023-02-14T16:03:43.512Z,26.25
2023-02-14T16:06:29.970Z,27.40
2023-02-14T16:08:58.402Z,28.27
2023-02-14T16:11:33.189Z,26.00
2023-02-14T16:14:21.830Z,26.17
2023-02-14T16:17:00.760Z,27.35
2023-02-14T16:19:38.563Z,28.90
2023-02-14T16:22:07.906Z,26.45
2023-02-14T16:24:37.657Z,27.40
2023-02-14T16:27:07.614Z,27.57
2023-02-14T16:29:36.605Z,23.38
2023-02-14T16:32:17.386Z,23.77
2023-02-14T16:34:48.147Z,24.00
2023-02-14T16:37:21.937Z,22.88
2023-02-14T16:39:50.562Z,24.80
2023-02-14T16:42:19.403Z,27.63
2023-02-14T16:44:47.911Z,25.30
2023-02-14T16:47:17.195Z,24.92
2023-02-14T16:49:46.424Z,23.05
2023-02-14T16:52:17.690Z,24.23
2023-02-14T16:54:45.290Z,25.67
2023-02-14T16:57:19.287Z,26.10
2023-02-14T16:59:46.935Z,28.40
2023-02-14T17:02:15.985Z,25.38
2023-02-14T17:04:43.507Z,25.93
2023-02-14T17:07:15.392Z,27.30
2023-02-14T17:09:48.755Z,24.20
2023-02-14T17:12:21.395Z,25.05
2023-02-14T17:14:52.335Z,23.38
2023-02-14T17:17:20.400Z,24.90
2023-02-14T17:19:48.177Z,26.77
2023-02-14T17:22:17.295Z,24.58
2023-02-14T17:24:45.012Z,28.23
2023-02-14T17:27:12.538Z,27.10
2023-02-14T17:29:40.088Z,27.30
2023-02-14T17:32:07.665Z,28.05
2023-02-14T17:34:35.307Z,25.60
2023-02-14T17:37:03.138Z,27.65
2023-02-14T17:39:31.993Z,27.25
2023-02-14T17:41:59.529Z,27.97
2023-02-14T17:44:29.536Z,28.10
2023-02-14T17:46:57.916Z,29.05
2023-02-14T17:49:25.611Z,26.88
2023-02-14T17:51:53.161Z,27.33
2023-02-14T17:54:20.700Z,31.93
2023-02-14T17:56:49.538Z,30.85
2023-02-14T17:59:17.128Z,30.10
2023-02-14T18:01:44.689Z,32.05
2023-02-14T18:04:12.265Z,28.90
2023-02-14T18:06:40.230Z,29.87
2023-02-14T18:09:08.213Z,29.55
2023-02-14T18:11:35.748Z,29.33
2023-02-14T18:14:04.623Z,28.73
2023-02-14T18:16:32.311Z,79.10
2023-02-14T18:19:02.834Z,152.67
2023-02-14T18:21:34.427Z,125.07
2023-02-14T18:24:02.292Z,70.75
2023-02-14T18:26:30.757Z,65.28
2023-02-14T18:28:59.270Z,52.55
2023-02-14T18:31:28.196Z,30.53
2023-02-14T18:33:56.735Z,29.58
2023-02-14T18:36:24.970Z,37.00
2023-02-14T18:38:52.682Z,32.30
2023-02-14T18:41:21.024Z,29.08
2023-02-14T18:43:49.855Z,33.17
2023-02-14T18:46:19.657Z,29.33
2023-02-14T18:48:48.910Z,28.95
2023-02-14T18:51:18.544Z,27.63
2023-02-14T18:53:46.961Z,29.40
2023-02-14T18:56:16.936Z,27.57
2023-02-14T18:58:47.021Z,26.55
2023-02-14T19:01:16.526Z,26.40
2023-02-14T19:03:44.978Z,27.52
2023-02-14T19:06:14.116Z,31.63
2023-02-14T19:08:42.398Z,27.93
2023-02-14T19:11:11.625Z,32.90
2023-02-14T19:13:39.359Z,30.40
2023-02-14T19:16:12.194Z,31.23
2023-02-14T19:18:39.952Z,31.17
2023-02-14T19:21:12.169Z,30.47
2023-02-14T19:23:41.316Z,35.45
2023-02-14T19:26:13.202Z,32.63
2023-02-14T19:28:41.257Z,30.63
2023-02-14T19:31:08.977Z,30.05
2023-02-14T19:33:39.083Z,31.43
2023-02-14T19:36:09.117Z,29.38
2023-02-14T19:38:36.762Z,30.80
2023-02-14T19:41:06.086Z,32.38
2023-02-14T19:43:33.701Z,30.92
2023-02-14T19:46:04.322Z,30.93
2023-02-14T19:48:31.883Z,31.80
2023-02-14T19:51:00.492Z,29.70
2023-02-14T19:53:28.200Z,32.15
2023-02-14T19:55:56.188Z,32.20
2023-02-14T19:58:25.962Z,30.80
2023-02-14T20:00:58.091Z,32.80
2023-02-14T20:03:26.633Z,35.47
2023-02-14T20:05:54.154Z,39.92
2023-02-14T20:08:21.798Z,36.97
2023-02-14T20:10:49.328Z,39.20
2023-02-14T20:13:16.820Z,41.55
2023-02-14T20:15:46.105Z,44.63
2023-02-14T20:18:13.680Z,32.42
2023-02-14T20:21:02.976Z,37.55
2023-02-14T20:23:33.417Z,37.13
2023-02-14T20:26:01.283Z,35.73
2023-02-14T20:28:29.065Z,36.63
2023-02-14T20:30:58.364Z,37.67
2023-02-14T20:33:26.308Z,38.13
2023-02-14T20:35:54.010Z,44.00
2023-02-14T20:38:21.517Z,41.25
2023-02-14T20:40:49.345Z,37.20
2023-02-14T20:43:17.039Z,36.05
2023-02-14T20:45:45.846Z,36.92
2023-02-14T20:48:14.838Z,39.17
2023-02-14T20:50:42.477Z,37.40
2023-02-14T20:53:10.085Z,40.35
2023-02-14T20:55:41.704Z,39.80
2023-02-14T20:58:09.345Z,40.03
2023-02-14T21:00:37.006Z,39.83
2023-02-14T21:03:05.331Z,40.35
2023-02-14T21:05:34.361Z,39.67
2023-02-14T21:08:01.982Z,39.97
2023-02-14T21:10:29.784Z,38.22
2023-02-14T21:12:58.391Z,43.97
2023-02-14T21:15:25.921Z,43.08
2023-02-14T21:17:53.473Z,39.80
2023-02-14T21:20:21.142Z,42.25
2023-02-14T21:22:50.104Z,43.67
2023-02-14T21:25:17.907Z,37.63
2023-02-14T21:27:46.420Z,41.97
2023-02-14T21:30:14.754Z,39.55
2023-02-14T21:32:43.368Z,40.28
2023-02-14T21:35:11.210Z,37.08
2023-02-14T21:37:38.865Z,35.63
2023-02-14T21:40:09.431Z,38.97
2023-02-14T21:42:37.059Z,39.78
2023-02-14T21:45:22.784Z,36.58
2023-02-14T21:48:10.488Z,37.55
2023-02-14T21:50:37.746Z,37.37
2023-02-14T21:53:07.372Z,38.45
2023-02-14T21:55:38.328Z,38.22
2023-02-14T21:58:05.884Z,39.63
2023-02-14T22:00:33.489Z,36.63
2023-02-14T22:03:01.202Z,38.37
2023-02-14T22:05:29.423Z,41.65
2023-02-14T22:07:56.974Z,38.25
2023-02-14T22:10:24.502Z,37.03
2023-02-14T22:12:53.427Z,39.08
2023-02-14T22:15:20.955Z,40.10
2023-02-14T22:17:48.487Z,36.92
2023-02-14T22:20:16.690Z,44.38
2023-02-14T22:22:44.245Z,39.00
2023-02-14T22:25:11.814Z,38.55
2023-02-14T22:27:40.407Z,37.27
2023-02-14T22:30:10.163Z,40.78
2023-02-14T22:32:37.865Z,39.08
2023-02-14T22:35:05.767Z,42.42
2023-02-14T22:37:33.353Z,39.42
2023-02-14T22:40:00.865Z,41.27
2023-02-14T22:42:28.520Z,43.80
2023-02-14T22:44:56.085Z,43.22
2023-02-14T22:47:25.018Z,44.38
2023-02-14T22:49:52.821Z,42.03
2023-02-14T22:52:20.429Z,43.03
2023-02-14T22:54:48.132Z,42.08
2023-02-14T22:57:15.673Z,42.25
2023-02-14T22:59:43.206Z,42.55
2023-02-14T23:02:11.419Z,46.53
2023-02-14T23:04:40.440Z,45.80
2023-02-14T23:07:07.950Z,43.35
2023-02-14T23:09:35.591Z,47.42
2023-02-14T23:12:03.173Z,50.00
2023-02-14T23:14:48.198Z,47.20
2023-02-14T23:17:34.515Z,52.10
2023-02-14T23:20:21.201Z,54.50
2023-02-14T23:22:48.727Z,60.25
2023-02-14T23:25:16.468Z,64.75
2023-02-14T23:27:47.163Z,77.55
2023-02-14T23:30:17.002Z,69.63
2023-02-14T23:32:45.027Z,85.90
2023-02-14T23:35:14.354Z,64.97
2023-02-14T23:37:42.581Z,93.95
2023-02-14T23:40:10.961Z,83.72
2023-02-14T23:42:38.941Z,99.90
2023-02-14T23:45:25.094Z,73.22
2023-02-14T23:47:52.765Z,83.70
2023-02-14T23:50:21.971Z,68.68
2023-02-14T23:52:49.569Z,73.28
2023-02-14T23:55:17.293Z,100.27
2023-02-14T23:57:44.851Z,81.22
